Flight Track Log - Related Links

Times and Time Zones

All times are in EDT time to prevent confusion due to time zone crossing. See the EJA929 flight status page for this flight to view local times or setup timezone preferences in your user account.

Time Position Orientation Groundspeed Altitude Reporting Facility
EDT Latitude Longitude Course Direction KTS MPH feet Rate Location/Type
Tue 10:06:58 AM 42.6619 -83.4519 305° West 170 196 2,000  Level Cleveland Center
Tue 10:07:53 AM 42.6858 -83.4981 305° West 209 241 3,800 1,468 Climbing Cleveland Center
Tue 10:08:32 AM 42.7181 -83.4631 39° Northeast 271 312 4,300 2,132 Climbing Cleveland Center
Tue 10:09:54 AM 42.7281 -83.3081 85° East 306 352 8,100 2,708 Climbing Cleveland Center
Tue 10:10:56 AM 42.6908 -83.2047 116° Southeast 308 354 10,800 1,918 Climbing Cleveland Center
Tue 10:11:56 AM 42.6414 -83.0839 119° Southeast 355 409 12,000 2,000 Climbing Cleveland Center
Tue 10:12:56 AM 42.5897 -82.9664 121° Southeast 366 421 14,800 2,750 Climbing Cleveland Center
Tue 10:13:56 AM 42.5400 -82.8489 120° Southeast 366 421 17,500 2,250 Climbing Cleveland Center
Tue 10:14:56 AM 42.4861 -82.7258 121° Southeast 366 421 19,300 1,400 Climbing Cleveland Center
Tue 10:15:56 AM 42.4281 -82.5944 121° Southeast 377 434 20,300 1,150 Climbing Cleveland Center
Tue 10:16:56 AM 42.3722 -82.4494 117° Southeast 406 467 21,600 1,450 Climbing Cleveland Center
Tue 10:17:56 AM 42.3581 -82.2831 97° East 429 494 23,200 1,650 Climbing Cleveland Center
Tue 10:18:56 AM 42.3519 -82.1200 93° East 434 499 24,900 1,400 Climbing Cleveland Center
Tue 10:19:56 AM 42.3394 -81.9511 96° East 439 505 26,000 1,050 Climbing Cleveland Center
Tue 10:20:56 AM 42.3225 -81.7850 98° East 447 514 27,000 1,250 Climbing Cleveland Center
Tue 10:21:56 AM 42.3056 -81.6081 97° East 453 521 28,500 1,500 Climbing Cleveland Center
Tue 10:22:56 AM 42.2861 -81.4281 98° East 470 541 30,000 1,500 Climbing Cleveland Center
Tue 10:23:56 AM 42.2686 -81.2425 97° East 484 557 31,500 1,500 Climbing Cleveland Center
Tue 10:24:56 AM 42.2486 -81.0600 98° East 495 570 33,000 1,400 Climbing Cleveland Center
Tue 10:25:56 AM 42.2306 -80.8917 98° East 501 577 34,300 1,400 Climbing Cleveland Center
Tue 10:26:56 AM 42.2100 -80.6981 98° East 508 585 35,800 1,250 Climbing Cleveland Center
Tue 10:27:56 AM 42.1892 -80.5019 98° East 521 600 36,800 600 Climbing Cleveland Center
Tue 10:28:56 AM 42.1681 -80.2975 98° East 537 618 37,000 100 Climbing Cleveland Center
Tue 10:29:56 AM 42.1444 -80.0986 99° East 542 624 37,000  Level Cleveland Center
Tue 10:30:56 AM 42.1183 -79.8833 99° East 537 618 37,000  Level Cleveland Center
Tue 10:31:56 AM 42.0961 -79.6878 99° East 537 618 37,000  Level Cleveland Center
Tue 10:32:56 AM 42.0717 -79.4922 99° East 537 618 37,000  Level Cleveland Center
Tue 10:33:56 AM 42.0508 -79.2969 98° East 532 612 37,000  Level Cleveland Center
Tue 10:34:56 AM 42.0256 -79.1017 100° East 532 612 37,000  Level Cleveland Center
Tue 10:35:56 AM 42.0019 -78.9094 99° East 526 605 37,000  Level Cleveland Center
Tue 10:36:56 AM 41.9783 -78.7172 99° East 526 605 37,000  Level Cleveland Center
Tue 10:37:56 AM 41.9522 -78.5311 101° East 521 600 37,000  Level Cleveland Center
Tue 10:38:56 AM 41.9297 -78.3419 99° East 521 600 37,000  Level Cleveland Center
Tue 10:39:56 AM 41.9053 -78.1558 100° East 521 600 37,000 -674 Level Cleveland Center
Tue 10:41:54 AM 41.8542 -77.8136 101° East 523 602 35,000 -670 Descending New York Center
Tue 10:42:55 AM 41.8081 -77.6389 109° East 513 590 35,000  Level New York Center
Tue 10:43:55 AM 41.7600 -77.4614 110° East 507 583 35,000 -862 Level New York Center
Tue 10:45:00 AM 41.7144 -77.3087 112° Southeast  Level FlightAware Approximate
Tue 10:45:56 AM 41.6653 -77.0992 112° Southeast 507 583 32,400  Level New York Center
Tue 10:46:56 AM 41.6164 -76.9197 110° East 512 589 30,400 -2,000 Descending New York Center
Tue 10:47:56 AM 41.5672 -76.7406 110° East 512 589 28,400 -2,100 Descending New York Center
Tue 10:48:56 AM 41.5158 -76.5586 111° Southeast 512 589 26,200 -1,835 Descending New York Center
Tue 10:49:57 AM 41.4628 -76.3575 109° East 518 596 24,700 -1,109 Descending New York Center
Tue 10:50:55 AM 41.4131 -76.1736 110° East 523 602 24,000 -458 Descending New York Center
Tue 10:51:55 AM 41.3603 -76.0033 112° Southeast 516 594 23,800 -1,388 Descending New York Center
Tue 10:52:56 AM 41.3114 -75.8339 111° Southeast 501 577 21,200 -2,281 Descending New York Center
Tue 10:53:56 AM 41.2753 -75.7042 110° East 485 558 19,200 -3,051 Descending New York Center
Tue 10:54:54 AM 41.2197 -75.5319 113° Southeast 459 528 15,200 -3,000 Descending New York Center
Tue 10:55:54 AM 41.1714 -75.3850 114° Southeast 447 514 13,300 -2,100 Descending New York Center
Tue 10:56:54 AM 41.1231 -75.2386 114° Southeast 426 490 11,000 -2,132 Descending New York Center
Tue 10:57:55 AM 41.0853 -75.1289 115° Southeast 348 400 9,000 -1,884 Descending New York Center
Tue 10:58:55 AM 41.0536 -75.0303 113° Southeast 302 348 7,200 -1,438 Descending New York Center
Tue 10:59:56 AM 41.0339 -74.9383 106° East 283 326 6,100 -1,190 Descending New York Center
Tue 11:00:56 AM 41.0297 -74.8200 93° East 295 339 4,800 -1,041 Descending New York Center
Tue 11:01:57 AM 41.0308 -74.7264 89° East 289 333 4,000 -407 Descending New York Center
Tue 11:02:54 AM 41.0303 -74.6164 90° East 278 320 4,000  Level New York Center
Tue 11:03:55 AM 41.0292 -74.5228 91° East 273 314 4,000  Level New York Center
Tue 11:04:55 AM 41.0286 -74.4072 90° East 273 314 4,000  Level New York Center
Tue 11:05:56 AM 41.0292 -74.3139 90° East 279 321 4,000 -492 Level New York Center
Tue 11:06:57 AM 41.0303 -74.2067 89° East 279 321 3,000 -1,017 Descending New York Center
Tue 11:07:54 AM 41.0267 -74.1156 93° East 257 296 2,000 -504 Descending New York Center
Tue 11:08:56 AM 40.9883 -74.0697 138° Southeast 194 223 2,000 -200 Level New York Center
Tue 11:09:54 AM 40.9389 -74.0536 166° South 175 201 1,600 -559 Descending New York Center
Tue 11:10:54 AM 40.9014 -74.0572 184° South 158 182 900 -689 Descending New York Center
Tue 11:11:56 AM 40.8617 -74.0608 184° South 140 161 200 -677 Descending New York Center
Tue 11:13:00 AM 40.8500 -74.0500 135° Southeast  Level FlightAware Approximate
Tue 11:20:00 AM 40.8501 -74.0608 135° Southeast  Level Estimated
Tue 11:21:00 AM 40.8501 -74.0608 135° Southeast  Level Estimated

Login

Don't have an account? Register now (free) for customized features, flight alerts, and more!